Oakdale, NY (11769)

10:39 PM EST on March 03, 2015 (GMT -0500)
Idle Hour | Change Station
CLOSE
Current Station
Personal Weather Station
Location: Oakdale, NY
Elevation: 3 ft
Nearby Weather Stations
Active Advisory: Winter Storm Watch Active Notice: Record Report

Elev 3 ft 40.73 °N, 73.14 °W | Updated 9 minutes ago

Rain
Rain
33.4 °F
Feels Like 33 °F
N
0.0
Wind Variable Wind from West

Today
High -- | Low -- °F
--% Chance of Precip.
Yesterday
High -- | Low -- °F
Precip. -- in
6:23 AM 5:45 PM
Waxing Gibbous, 98% visible
Pressure 29.94 in
Visibility 2.0 miles
Clouds Overcast 400 ft
Windchill 33 °F
Dew Point 33 °F
Humidity 99%
Rainfall 0.64 in
Snow Depth Not available.
UV 0 out of 12
Pollen .50 out of 12
Air Quality Not available.
Flu Activity Not available.
METAR KISP 040256Z 23004KT 2SM RA BR OVC004 01/00 A2994 RMK AO2 SLP139 P0013 60034 I3000 T00110000 56056

More Conditions Fewer Conditions

Pressure 29.94 in
Visibility 2.0 miles
Clouds Overcast 400 ft
Windchill 33 °F
Dew Point 33 °F
Humidity 99%
Rainfall 0.64 in
Snow Depth Not available.
UV 0 out of 12
Pollen .50 out of 12
Air Quality Not available.
Flu Activity Not available.
METAR KISP 040256Z 23004KT 2SM RA BR OVC004 01/00 A2994 RMK AO2 SLP139 P0013 60034 I3000 T00110000 56056

More Conditions Fewer Conditions

10-Day Weather Forecast

Almanac

Astronomy

Mar. 03, 2015 Rise Set
Actual Time
Civil Twilight
Nautical Twilight
Astronomical Twilight
Moon
Length of Visible Light
Length of Day
Tomorrow will be .
, % of the Moon is Illuminated

Today's Extremes

State Highs State Lows

Community

WunderPhotos

Upload Photos

1,802,374 photos uploaded!

WunderBlogs® & News

Nearby

Air Quality

  Air Quality AQ Index Pollutant
Not available.

Snow Depth

Station Depth Elevation

Earthquake Activity

City Distance Mag. Time & Date
Minimum magnitude displayed is 2.5.

Coastal Water Temperatures

Place Temperature

Nearby Weather Stations

Winter Storm Watch
Statement as of 10:39 PM EST on March 03, 2015

... Winter Storm Watch remains in effect from Wednesday evening
through Thursday evening...
... Winter Weather Advisory is cancelled...

The National Weather Service in New York has cancelled the Winter
Weather Advisory.

* Locations... southern Connecticut... Long Island... New York
City... southern Westchester... and portions of northeast New
Jersey.

* Hazard types... heavy snow Wednesday night into Thursday.

* Accumulations... 4 to 8 inches of snow.

* Timing... snow develops late Wednesday night and continues
through Thursday afternoon.

* Impacts... hazardous travel conditions are expected due to
greatly reduced visibilities and significant snow accumulations.

Precautionary/preparedness actions...

A Winter Storm Watch means there is a potential for significant
snow... sleet... or ice accumulations that may impact travel.
Continue to monitor the latest forecasts.